New Market, Indiana
Current Conditions -  °F | °C
As of 3:15 AM on Thursday 27 Nov 2014 (Local Time) from K4I7 Reporting Station
Overcast Overcast  
Wind Chill: 20°   Ceiling: 1600
Heat Index: 28°   Visibility: 7mi
Dew Point: 23°   Wind: 8mph
Humidity: 80%   Direction: 330°NNW
Pressure: 30.18"   Gusts: NA
Location:  39.95°N, 86.92°W
Report Text: K4I7 270815Z AUTO 33007KT 7SM OVC016 M02/M05 A3018 RMK AO2
Loading
Personal Weather Stations






























Interactive Weather Map New forecast layout! Learn more

10-Day Weather Forecast

Advertisements
Track Severe Weather on mobile